createdAt,value
2022-08-11T00:01:57.391Z,59.65
2022-08-11T00:04:26.226Z,59.68
2022-08-11T00:06:54.102Z,59.66
2022-08-11T00:09:22.530Z,59.74
2022-08-11T00:11:51.787Z,59.68
2022-08-11T00:14:23.085Z,59.74
2022-08-11T00:16:54.133Z,59.76
2022-08-11T00:20:11.604Z,59.87
2022-08-11T00:22:10.584Z,59.92
2022-08-11T00:24:53.342Z,59.97
2022-08-11T00:27:32.843Z,60.08
2022-08-11T00:30:00.447Z,60.08
2022-08-11T00:32:28.245Z,60.14
2022-08-11T00:35:51.318Z,60.14
2022-08-11T00:37:50.679Z,60.35
2022-08-11T00:40:19.747Z,60.25
2022-08-11T00:43:20.261Z,60.26
2022-08-11T00:46:06.704Z,60.28
2022-08-11T00:48:36.882Z,60.30
2022-08-11T00:51:16.743Z,60.35
2022-08-11T00:53:47.618Z,60.53
2022-08-11T00:56:18.356Z,60.63
2022-08-11T00:58:50.884Z,60.58
2022-08-11T01:01:20.850Z,60.61
2022-08-11T01:04:07.303Z,60.72
2022-08-11T01:06:49.947Z,60.81
2022-08-11T01:09:22.484Z,60.80
2022-08-11T01:11:57.801Z,60.82
2022-08-11T01:14:44.446Z,60.87
2022-08-11T01:17:30.916Z,60.96
2022-08-11T01:20:45.044Z,60.95
2022-08-11T01:22:52.732Z,61.03
2022-08-11T01:25:56.839Z,60.96
2022-08-11T01:28:26.833Z,61.14
2022-08-11T01:30:56.597Z,61.22
2022-08-11T01:33:51.586Z,61.15
2022-08-11T01:36:20.007Z,61.20
2022-08-11T01:38:47.582Z,61.30
2022-08-11T01:41:20.687Z,61.33
2022-08-11T01:44:12.514Z,61.26
2022-08-11T01:46:47.912Z,61.44
2022-08-11T01:50:09.632Z,61.46
2022-08-11T01:52:45.031Z,61.33
2022-08-11T01:55:16.974Z,61.48
2022-08-11T01:57:47.687Z,61.62
2022-08-11T02:00:22.148Z,61.57
2022-08-11T02:03:01.964Z,61.62
2022-08-11T02:05:37.234Z,61.54
2022-08-11T02:08:33.483Z,61.60
2022-08-11T02:11:31.091Z,61.70
2022-08-11T02:14:05.135Z,61.70
2022-08-11T02:16:38.447Z,61.70
2022-08-11T02:19:33.136Z,61.80
2022-08-11T02:22:22.601Z,61.86
2022-08-11T02:25:22.351Z,61.80
2022-08-11T02:28:00.909Z,61.89
2022-08-11T02:30:32.676Z,61.87
2022-08-11T02:33:23.509Z,61.86
2022-08-11T02:36:08.585Z,62.01
2022-08-11T02:38:36.182Z,61.99
2022-08-11T02:41:26.734Z,62.05
2022-08-11T02:44:06.551Z,62.15
2022-08-11T02:46:55.115Z,62.18
2022-08-11T02:50:06.270Z,62.31
2022-08-11T02:52:37.141Z,62.27
2022-08-11T02:55:44.550Z,62.34
2022-08-11T02:58:35.449Z,62.34
2022-08-11T03:01:06.678Z,62.28
2022-08-11T03:03:38.232Z,62.35
2022-08-11T03:06:08.901Z,62.47
2022-08-11T03:08:51.408Z,62.54
2022-08-11T03:11:49.774Z,62.57
2022-08-11T03:14:56.309Z,62.61
2022-08-11T03:17:26.978Z,62.63
2022-08-11T03:20:01.638Z,62.60
2022-08-11T03:22:29.136Z,62.67
2022-08-11T03:25:08.749Z,62.78
2022-08-11T03:27:39.044Z,62.79
2022-08-11T03:30:06.837Z,62.81
2022-08-11T03:32:42.722Z,62.97
2022-08-11T03:35:10.296Z,63.25
2022-08-11T03:37:53.849Z,63.31
2022-08-11T03:40:41.286Z,63.16
2022-08-11T03:43:22.318Z,63.34
2022-08-11T03:46:02.066Z,63.25
2022-08-11T03:48:39.466Z,63.48
2022-08-11T03:51:11.456Z,63.43
2022-08-11T03:54:01.568Z,63.54
2022-08-11T03:56:38.093Z,63.48
2022-08-11T03:59:08.598Z,63.60
2022-08-11T04:01:38.390Z,63.63
2022-08-11T04:04:25.036Z,63.64
2022-08-11T04:06:52.540Z,63.73
2022-08-11T04:09:20.127Z,63.70
2022-08-11T04:11:50.735Z,63.71
2022-08-11T04:14:56.052Z,63.74
2022-08-11T04:17:27.055Z,63.78
2022-08-11T04:20:16.722Z,63.78
2022-08-11T04:22:55.257Z,63.80
2022-08-11T04:25:28.912Z,63.72
2022-08-11T04:28:28.338Z,63.70
2022-08-11T04:31:15.379Z,63.74
2022-08-11T04:34:14.306Z,63.78
2022-08-11T04:37:06.297Z,63.68
2022-08-11T04:39:52.866Z,63.55
2022-08-11T04:42:58.217Z,63.47
2022-08-11T04:45:41.714Z,63.42
2022-08-11T04:48:43.464Z,63.47
2022-08-11T04:51:33.066Z,63.40
2022-08-11T04:54:20.882Z,63.43
2022-08-11T04:57:09.746Z,63.19
2022-08-11T05:00:08.120Z,63.28
2022-08-11T05:02:59.024Z,63.22
2022-08-11T05:05:32.431Z,63.09
2022-08-11T05:08:09.390Z,63.00
2022-08-11T05:10:55.618Z,62.90
2022-08-11T05:13:52.240Z,62.85
2022-08-11T05:16:39.796Z,62.55
2022-08-11T05:19:26.037Z,62.66
2022-08-11T05:22:14.529Z,62.55
2022-08-11T05:25:05.991Z,62.51
2022-08-11T05:27:55.111Z,62.44
2022-08-11T05:30:45.286Z,62.23
2022-08-11T05:33:34.214Z,62.11
2022-08-11T05:36:12.512Z,61.80
2022-08-11T05:38:58.640Z,61.64
2022-08-11T05:41:45.524Z,61.79
2022-08-11T05:44:36.406Z,61.67
2022-08-11T05:47:23.379Z,61.41
2022-08-11T05:50:13.617Z,61.15
2022-08-11T05:53:03.906Z,61.05
2022-08-11T05:56:02.108Z,60.99
2022-08-11T05:58:39.772Z,60.67
2022-08-11T06:01:10.906Z,60.25
2022-08-11T06:03:59.021Z,60.36
2022-08-11T06:06:26.848Z,60.18
2022-08-11T06:08:57.913Z,59.97
2022-08-11T06:11:43.685Z,59.76
2022-08-11T06:14:12.991Z,59.60
2022-08-11T06:16:41.162Z,59.81
2022-08-11T06:19:09.715Z,59.50
2022-08-11T06:21:37.482Z,59.34
2022-08-11T06:24:11.280Z,59.01
2022-08-11T06:26:55.050Z,58.58
2022-08-11T06:29:37.619Z,58.46
2022-08-11T06:32:15.556Z,58.23
2022-08-11T06:35:02.179Z,58.11
2022-08-11T06:37:36.721Z,58.01
2022-08-11T06:40:16.879Z,57.73
2022-08-11T06:42:52.660Z,57.46
2022-08-11T06:45:24.682Z,57.34
2022-08-11T06:47:52.427Z,56.97
2022-08-11T06:50:39.720Z,56.78
2022-08-11T06:53:10.607Z,56.67
2022-08-11T06:56:00.193Z,56.30
2022-08-11T06:58:56.080Z,56.12
2022-08-11T07:01:30.007Z,55.88
2022-08-11T07:04:00.474Z,55.58
2022-08-11T07:07:06.636Z,55.52
2022-08-11T07:10:12.601Z,54.95
2022-08-11T07:12:59.689Z,54.68
2022-08-11T07:16:09.020Z,54.54
2022-08-11T07:18:53.660Z,54.26
2022-08-11T07:22:01.444Z,53.98
2022-08-11T07:25:02.008Z,53.76
2022-08-11T07:28:05.705Z,53.47
2022-08-11T07:30:38.536Z,53.33
2022-08-11T07:33:06.148Z,52.88
2022-08-11T07:35:39.207Z,52.64
2022-08-11T07:38:08.041Z,52.61
2022-08-11T07:40:36.033Z,52.20
2022-08-11T07:43:03.604Z,52.04
2022-08-11T07:45:49.798Z,51.73
2022-08-11T07:48:36.588Z,51.59
2022-08-11T07:51:22.877Z,51.18
2022-08-11T07:54:03.208Z,50.95
2022-08-11T07:57:06.497Z,50.88
2022-08-11T08:00:03.359Z,50.61
2022-08-11T08:03:03.319Z,50.20
2022-08-11T08:05:49.542Z,49.96
2022-08-11T08:08:35.924Z,49.53
2022-08-11T08:11:27.294Z,49.28
2022-08-11T08:14:13.897Z,49.28
2022-08-11T08:17:00.857Z,48.80
2022-08-11T08:19:28.587Z,48.68
2022-08-11T08:22:07.129Z,48.68
2022-08-11T08:24:43.976Z,48.31
2022-08-11T08:27:13.789Z,47.73
2022-08-11T08:30:00.073Z,47.81
2022-08-11T08:32:28.067Z,47.78
2022-08-11T08:34:55.906Z,47.25
2022-08-11T08:37:46.379Z,47.22
2022-08-11T08:40:15.299Z,46.97
2022-08-11T08:42:46.499Z,46.79
2022-08-11T08:45:16.323Z,46.38
2022-08-11T08:47:53.642Z,45.73
2022-08-11T08:50:27.883Z,45.64
2022-08-11T08:53:00.955Z,45.83
2022-08-11T08:55:28.850Z,45.46
2022-08-11T08:57:59.362Z,44.95
2022-08-11T09:00:28.967Z,44.46
2022-08-11T09:02:56.620Z,44.60
2022-08-11T09:05:25.859Z,45.19
2022-08-11T09:07:53.562Z,42.30
2022-08-11T09:10:21.438Z,40.95
2022-08-11T09:12:49.293Z,40.84
2022-08-11T09:15:19.396Z,40.40
2022-08-11T09:17:52.005Z,38.18
2022-08-11T09:20:20.864Z,36.21
2022-08-11T09:24:06.495Z,36.05
2022-08-11T09:26:14.905Z,36.01
2022-08-11T09:28:43.648Z,33.83
2022-08-11T09:31:14.726Z,31.52
2022-08-11T09:33:43.235Z,31.07
2022-08-11T09:36:31.066Z,30.82
2022-08-11T09:39:17.539Z,30.66
2022-08-11T09:42:00.519Z,30.69
2022-08-11T09:44:49.850Z,30.24
2022-08-11T09:47:24.862Z,29.40
2022-08-11T09:49:53.829Z,29.08
2022-08-11T09:52:21.584Z,29.27
2022-08-11T09:54:50.223Z,27.63
2022-08-11T09:57:40.514Z,26.08
2022-08-11T10:00:13.362Z,25.15
2022-08-11T10:02:45.619Z,23.57
2022-08-11T10:05:54.644Z,22.87
2022-08-11T10:08:23.336Z,20.72
2022-08-11T10:10:50.951Z,20.84
2022-08-11T10:14:31.296Z,19.71
2022-08-11T10:16:15.842Z,19.69
2022-08-11T10:18:53.693Z,19.86
2022-08-11T10:21:25.084Z,20.25
2022-08-11T10:24:11.203Z,20.87
2022-08-11T10:26:51.065Z,20.36
2022-08-11T10:29:44.490Z,20.72
2022-08-11T10:32:58.328Z,21.38
2022-08-11T10:35:28.730Z,20.63
2022-08-11T10:38:06.656Z,20.01
2022-08-11T10:40:40.386Z,18.86
2022-08-11T10:43:14.333Z,18.99
2022-08-11T10:46:05.216Z,18.09
2022-08-11T10:48:35.533Z,18.89
2022-08-11T10:51:15.298Z,19.34
2022-08-11T10:54:04.145Z,19.50
2022-08-11T10:56:52.301Z,19.25
2022-08-11T10:59:22.457Z,19.76
2022-08-11T11:01:50.156Z,20.07
2022-08-11T11:04:18.599Z,19.84
2022-08-11T11:07:05.970Z,20.21
2022-08-11T11:09:41.327Z,19.85
2022-08-11T11:12:32.812Z,20.47
2022-08-11T11:15:38.975Z,20.71
2022-08-11T11:18:11.588Z,20.63
2022-08-11T11:20:50.577Z,20.75
2022-08-11T11:23:30.273Z,21.06
2022-08-11T11:26:27.143Z,21.04
2022-08-11T11:29:14.145Z,21.65
2022-08-11T11:32:00.635Z,21.85
2022-08-11T11:34:34.065Z,22.50
2022-08-11T11:37:02.461Z,22.94
2022-08-11T11:39:33.511Z,23.28
2022-08-11T11:42:03.294Z,23.75
2022-08-11T11:44:32.030Z,24.10
2022-08-11T11:47:00.608Z,24.56
2022-08-11T11:49:28.942Z,25.08
2022-08-11T11:51:57.158Z,25.16
2022-08-11T11:54:26.613Z,25.64
2022-08-11T11:56:55.013Z,25.96
2022-08-11T11:59:41.837Z,25.95
2022-08-11T12:02:12.215Z,25.83
2022-08-11T12:04:41.645Z,26.28
2022-08-11T12:07:28.005Z,26.40
2022-08-11T12:09:56.097Z,26.73
2022-08-11T12:12:42.101Z,26.91
2022-08-11T12:15:09.722Z,27.43
2022-08-11T12:17:37.492Z,27.51
2022-08-11T12:20:06.206Z,27.72
2022-08-11T12:23:14.780Z,27.98
2022-08-11T12:26:25.244Z,28.16
2022-08-11T12:28:49.881Z,28.18
2022-08-11T12:31:17.425Z,28.31
2022-08-11T12:33:47.181Z,28.51
2022-08-11T12:36:16.411Z,28.80
2022-08-11T12:38:44.696Z,29.47
2022-08-11T12:41:38.369Z,30.48
2022-08-11T12:44:25.317Z,31.28
2022-08-11T12:46:53.016Z,32.08
2022-08-11T12:49:44.717Z,32.65
2022-08-11T12:52:15.881Z,33.03
2022-08-11T12:54:52.390Z,33.63
2022-08-11T12:57:48.338Z,34.19
2022-08-11T13:00:35.872Z,34.93
2022-08-11T13:03:22.626Z,35.50
2022-08-11T13:05:51.935Z,36.00
2022-08-11T13:08:19.541Z,36.39
2022-08-11T13:11:05.650Z,36.87
2022-08-11T13:13:53.586Z,37.27
2022-08-11T13:16:21.400Z,37.68
2022-08-11T13:18:49.069Z,37.56
2022-08-11T13:21:20.426Z,38.01
2022-08-11T13:24:00.895Z,38.51
2022-08-11T13:26:47.191Z,39.10
2022-08-11T13:29:18.789Z,38.72
2022-08-11T13:31:46.525Z,38.75
2022-08-11T13:34:15.245Z,39.33
2022-08-11T13:36:42.968Z,40.03
2022-08-11T13:39:10.609Z,40.97
2022-08-11T13:41:39.404Z,41.23
2022-08-11T13:44:07.436Z,42.11
2022-08-11T13:46:35.325Z,42.75
2022-08-11T13:49:03.141Z,43.52
2022-08-11T13:51:34.154Z,44.08
2022-08-11T13:54:06.901Z,44.69
2022-08-11T13:56:35.172Z,44.61
2022-08-11T13:59:03.098Z,45.07
2022-08-11T14:02:22.865Z,45.39
2022-08-11T14:04:33.970Z,45.77
2022-08-11T14:07:07.006Z,46.29
2022-08-11T14:09:41.669Z,46.58
2022-08-11T14:12:28.856Z,46.61
2022-08-11T14:15:00.536Z,47.21
2022-08-11T14:17:43.733Z,47.39
2022-08-11T14:20:38.005Z,47.81
2022-08-11T14:23:05.303Z,48.19
2022-08-11T14:26:00.198Z,48.42
2022-08-11T14:28:31.571Z,48.15
2022-08-11T14:31:02.026Z,48.09
2022-08-11T14:33:58.759Z,47.73
2022-08-11T14:36:18.765Z,47.26
2022-08-11T14:38:46.329Z,46.70
2022-08-11T14:41:32.683Z,46.25
2022-08-11T14:44:19.223Z,46.18
2022-08-11T14:47:05.781Z,46.37
2022-08-11T14:50:10.291Z,46.28
2022-08-11T14:52:50.183Z,46.43
2022-08-11T14:55:37.449Z,46.63
2022-08-11T14:58:05.718Z,46.71
2022-08-11T15:00:34.406Z,47.04
2022-08-11T15:03:13.254Z,47.04
2022-08-11T15:05:52.375Z,47.19
2022-08-11T15:08:47.971Z,47.41
2022-08-11T15:11:37.820Z,47.57
2022-08-11T15:14:06.505Z,47.58
2022-08-11T15:16:53.481Z,47.49
2022-08-11T15:19:21.529Z,47.54
2022-08-11T15:22:09.371Z,47.80
2022-08-11T15:24:37.612Z,47.66
2022-08-11T15:27:33.945Z,47.82
2022-08-11T15:30:32.975Z,47.85
2022-08-11T15:33:23.390Z,47.69
2022-08-11T15:36:11.342Z,47.82
2022-08-11T15:38:55.267Z,47.77
2022-08-11T15:41:42.994Z,47.94
2022-08-11T15:44:58.849Z,47.69
2022-08-11T15:47:19.939Z,47.84
2022-08-11T15:50:11.701Z,48.11
2022-08-11T15:52:38.924Z,48.25
2022-08-11T15:55:08.609Z,48.44
2022-08-11T15:57:55.771Z,48.47
2022-08-11T16:00:42.278Z,48.63
2022-08-11T16:04:05.947Z,48.67
2022-08-11T16:06:16.093Z,48.74
2022-08-11T16:08:44.559Z,48.69
2022-08-11T16:11:12.227Z,48.62
2022-08-11T16:13:39.831Z,48.66
2022-08-11T16:16:17.248Z,49.00
2022-08-11T16:18:51.832Z,49.21
2022-08-11T16:21:26.138Z,49.37
2022-08-11T16:24:03.795Z,49.38
2022-08-11T16:27:10.438Z,49.58
2022-08-11T16:29:19.163Z,49.62
2022-08-11T16:32:06.664Z,49.38
2022-08-11T16:34:53.081Z,49.69
2022-08-11T16:37:39.671Z,49.86
2022-08-11T16:40:09.366Z,49.95
2022-08-11T16:43:09.255Z,49.89
2022-08-11T16:45:58.869Z,50.03
2022-08-11T16:48:35.388Z,49.90
2022-08-11T16:51:11.337Z,49.97
2022-08-11T16:54:03.298Z,50.05
2022-08-11T16:56:28.418Z,50.33
2022-08-11T16:59:15.565Z,50.21
2022-08-11T17:01:45.210Z,50.31
2022-08-11T17:04:36.324Z,50.43
2022-08-11T17:07:23.761Z,50.51
2022-08-11T17:11:00.189Z,50.92
2022-08-11T17:13:38.685Z,51.01
2022-08-11T17:16:12.057Z,51.20
2022-08-11T17:18:46.896Z,51.33
2022-08-11T17:21:16.280Z,51.53
2022-08-11T17:23:50.026Z,51.61
2022-08-11T17:26:23.623Z,51.60
2022-08-11T17:28:53.197Z,51.82
2022-08-11T17:31:39.792Z,51.97
2022-08-11T17:34:27.188Z,52.25
2022-08-11T17:36:55.491Z,52.49
2022-08-11T17:39:24.408Z,52.64
2022-08-11T17:42:11.132Z,52.65
2022-08-11T17:44:58.253Z,52.70
2022-08-11T17:47:44.621Z,52.90
2022-08-11T17:50:17.582Z,53.14
2022-08-11T17:53:04.550Z,53.20
2022-08-11T17:55:53.414Z,53.42
2022-08-11T17:58:40.354Z,53.48
2022-08-11T18:01:09.513Z,53.87
2022-08-11T18:03:40.398Z,53.96
2022-08-11T18:06:12.581Z,54.15
2022-08-11T18:09:02.973Z,54.30
2022-08-11T18:12:06.174Z,54.42
2022-08-11T18:14:56.338Z,54.53
2022-08-11T18:17:42.759Z,54.79
2022-08-11T18:20:28.950Z,54.98
2022-08-11T18:23:15.260Z,54.83
2022-08-11T18:26:03.272Z,55.32
2022-08-11T18:28:59.310Z,55.48
2022-08-11T18:31:45.491Z,55.52
2022-08-11T18:34:32.889Z,55.71
2022-08-11T18:37:20.122Z,55.90
2022-08-11T18:40:11.939Z,56.04
2022-08-11T18:42:58.501Z,55.97
2022-08-11T18:45:45.909Z,55.98
2022-08-11T18:48:34.159Z,56.01
2022-08-11T18:51:30.841Z,56.32
2022-08-11T18:54:25.019Z,56.02
2022-08-11T18:57:11.307Z,56.47
2022-08-11T18:59:57.601Z,56.52
2022-08-11T19:02:48.536Z,56.69
2022-08-11T19:06:31.723Z,56.76
2022-08-11T19:08:46.877Z,56.94
2022-08-11T19:11:33.313Z,57.16
2022-08-11T19:14:19.882Z,57.22
2022-08-11T19:17:06.165Z,57.45
2022-08-11T19:19:52.391Z,57.73
2022-08-11T19:22:38.743Z,57.99
2022-08-11T19:25:26.036Z,58.12
2022-08-11T19:28:12.257Z,58.35
2022-08-11T19:30:58.627Z,58.45
2022-08-11T19:34:00.139Z,58.53
2022-08-11T19:36:49.589Z,59.02
2022-08-11T19:39:36.128Z,58.95
2022-08-11T19:42:22.484Z,59.05
2022-08-11T19:45:08.688Z,59.23
2022-08-11T19:48:14.157Z,59.58
2022-08-11T19:51:02.037Z,59.55
2022-08-11T19:53:49.179Z,59.85
2022-08-11T19:56:35.265Z,59.98
2022-08-11T19:59:22.445Z,59.94
2022-08-11T20:02:13.339Z,59.97
2022-08-11T20:05:00.837Z,60.37
2022-08-11T20:07:47.187Z,60.30
2022-08-11T20:10:34.251Z,60.25
2022-08-11T20:13:21.677Z,60.31
2022-08-11T20:16:08.212Z,60.52
2022-08-11T20:18:54.356Z,60.58
2022-08-11T20:21:40.860Z,60.76
2022-08-11T20:24:27.396Z,60.74
2022-08-11T20:27:18.966Z,60.79
2022-08-11T20:30:12.008Z,60.96
2022-08-11T20:32:58.321Z,61.02
2022-08-11T20:35:44.597Z,61.10
2022-08-11T20:38:30.625Z,61.15
2022-08-11T20:41:17.913Z,61.19
2022-08-11T20:44:06.644Z,61.18
2022-08-11T20:46:56.970Z,61.23
2022-08-11T20:49:50.413Z,61.26
2022-08-11T20:52:40.678Z,61.41
2022-08-11T20:55:46.398Z,61.47
2022-08-11T20:59:11.274Z,61.46
2022-08-11T21:01:40.935Z,61.68
2022-08-11T21:04:27.625Z,61.62
2022-08-11T21:07:23.605Z,61.79
2022-08-11T21:10:23.167Z,61.92
2022-08-11T21:13:26.159Z,61.88
2022-08-11T21:16:25.968Z,62.11
2022-08-11T21:19:14.352Z,62.03
2022-08-11T21:22:00.959Z,62.13
2022-08-11T21:24:49.089Z,62.39
2022-08-11T21:27:35.972Z,62.25
2022-08-11T21:30:22.326Z,62.22
2022-08-11T21:33:08.732Z,62.20
2022-08-11T21:35:54.745Z,62.46
2022-08-11T21:38:41.206Z,62.52
2022-08-11T21:41:27.236Z,62.64
2022-08-11T21:44:14.193Z,62.61
2022-08-11T21:47:00.405Z,62.95
2022-08-11T21:49:46.856Z,62.81
2022-08-11T21:52:33.106Z,62.81
2022-08-11T21:55:19.373Z,62.82
2022-08-11T21:58:05.636Z,62.94
2022-08-11T22:00:51.818Z,62.91
2022-08-11T22:03:49.411Z,63.06
2022-08-11T22:06:36.550Z,63.12
2022-08-11T22:09:22.802Z,63.09
2022-08-11T22:12:34.061Z,63.10
2022-08-11T22:15:15.213Z,62.99
2022-08-11T22:18:02.780Z,62.96
2022-08-11T22:20:49.454Z,62.99
2022-08-11T22:23:37.087Z,63.30
2022-08-11T22:26:23.183Z,63.42
2022-08-11T22:29:10.780Z,63.58
2022-08-11T22:31:57.744Z,63.39
2022-08-11T22:34:52.822Z,63.69
2022-08-11T22:37:40.612Z,63.67
2022-08-11T22:40:27.608Z,63.86
2022-08-11T22:43:13.778Z,63.88
2022-08-11T22:46:00.093Z,63.88
2022-08-11T22:48:49.704Z,63.96
2022-08-11T22:51:36.492Z,63.99
2022-08-11T22:54:23.376Z,63.87
2022-08-11T22:57:09.491Z,63.91
2022-08-11T22:59:55.780Z,64.12
2022-08-11T23:02:43.366Z,64.06
2022-08-11T23:05:29.631Z,64.05
2022-08-11T23:08:16.097Z,64.03
2022-08-11T23:11:02.734Z,64.08
2022-08-11T23:13:48.962Z,64.12
2022-08-11T23:16:36.620Z,64.09
2022-08-11T23:20:03.810Z,64.24
2022-08-11T23:22:49.556Z,64.34
2022-08-11T23:25:36.981Z,64.44
2022-08-11T23:28:23.755Z,64.42
2022-08-11T23:31:09.897Z,64.32
2022-08-11T23:33:56.108Z,64.63
2022-08-11T23:36:47.036Z,64.43
2022-08-11T23:39:35.380Z,64.48
2022-08-11T23:42:22.178Z,64.60
2022-08-11T23:45:10.291Z,64.51
2022-08-11T23:47:57.203Z,64.78
2022-08-11T23:50:43.458Z,64.61
2022-08-11T23:53:30.222Z,64.75
2022-08-11T23:56:16.834Z,64.62
2022-08-11T23:59:03.322Z,64.92
